Time;durP1;ratioP1;P1;durP2;ratioP2;P2;SDS_P1;SDS_P2;PMS_P1;PMS_P2;Temp;Humidity;BMP_temperature;BMP_pressure;BME280_temperature;BME280_humidity;BME280_pressure;Samples;Min_cycle;Max_cycle;Signal;HPM_P1;HPM_P2
2022/06/15 00:00:54;;;;;;;11.50;2.00;;;;;;;9.96;66.53;100859.65;105980;1273;24521;-62
2022/06/15 00:03:26;;;;;;;8.20;1.70;;;;;;;9.89;66.63;100854.10;105717;1273;22564;-62
2022/06/15 00:06:08;;;;;;;5.50;1.30;;;;;;;9.84;66.73;100849.85;105876;1273;22535;-61
2022/06/15 00:08:42;;;;;;;6.10;1.20;;;;;;;9.78;66.88;100845.86;105761;1273;23089;-62
2022/06/15 00:11:16;;;;;;;5.00;1.30;;;;;;;9.75;66.94;100843.52;105699;1273;23137;-62
2022/06/15 00:13:49;;;;;;;9.40;1.40;;;;;;;9.71;67.11;100844.88;105762;1273;22719;-61
2022/06/15 00:16:21;;;;;;;5.80;1.10;;;;;;;9.66;67.28;100850.02;105697;1273;22628;-62
2022/06/15 00:18:54;;;;;;;5.70;1.40;;;;;;;9.61;67.52;100854.75;105691;1274;24343;-61
2022/06/15 00:21:25;;;;;;;7.50;1.20;;;;;;;9.56;67.41;100855.24;105867;1273;22525;-61
2022/06/15 00:23:58;;;;;;;9.30;1.20;;;;;;;9.53;67.50;100857.27;106119;1273;25599;-60
2022/06/15 00:26:30;;;;;;;9.50;1.30;;;;;;;9.51;67.58;100853.05;105976;1273;24268;-67
2022/06/15 00:29:01;;;;;;;8.60;1.30;;;;;;;9.47;67.60;100855.08;105651;1274;22565;-61
2022/06/15 00:31:34;;;;;;;7.30;1.40;;;;;;;9.41;67.75;100856.63;105709;1273;22532;-62
2022/06/15 00:34:06;;;;;;;7.90;1.60;;;;;;;9.40;67.93;100856.37;105736;1273;22537;-61
2022/06/15 00:36:38;;;;;;;6.90;1.60;;;;;;;9.37;68.01;100850.95;105732;1273;22551;-61
2022/06/15 00:39:10;;;;;;;7.10;1.20;;;;;;;9.33;68.02;100852.39;105704;1273;22528;-60
2022/06/15 00:41:41;;;;;;;7.50;1.80;;;;;;;9.29;68.06;100851.38;105653;1275;22560;-60
2022/06/15 00:44:35;;;;;;;7.60;1.60;;;;;;;9.25;68.14;100852.47;105668;1274;22547;-61
2022/06/15 00:47:11;;;;;;;7.90;1.60;;;;;;;9.22;68.31;100848.55;105688;1275;22615;-61
2022/06/15 00:49:48;;;;;;;11.20;1.80;;;;;;;9.17;68.32;100849.81;105657;1274;25255;-61
2022/06/15 00:52:32;;;;;;;10.50;1.50;;;;;;;9.13;68.52;100848.40;105597;1273;22550;-61
2022/06/15 00:55:08;;;;;;;8.30;1.40;;;;;;;9.11;68.55;100843.48;105654;1274;22536;-61
2022/06/15 00:57:41;;;;;;;9.00;1.90;;;;;;;9.09;68.65;100846.39;105656;1274;22534;-61
2022/06/15 01:00:13;;;;;;;9.90;2.10;;;;;;;9.05;68.78;100846.01;105623;1274;25298;-61
2022/06/15 01:02:45;;;;;;;8.30;1.80;;;;;;;9.02;68.73;100839.83;105791;1273;22551;-61
2022/06/15 01:05:20;;;;;;;6.10;1.30;;;;;;;8.99;68.85;100838.88;105829;1274;25307;-61
2022/06/15 01:08:03;;;;;;;8.60;1.40;;;;;;;8.96;68.90;100839.92;105588;1274;24263;-61
2022/06/15 01:10:50;;;;;;;9.30;1.60;;;;;;;8.94;68.97;100842.70;105607;1273;22703;-62
2022/06/15 01:13:44;;;;;;;8.40;1.30;;;;;;;8.91;69.05;100842.84;105573;1273;26010;-61
2022/06/15 01:16:26;;;;;;;11.10;1.70;;;;;;;8.88;69.16;100847.38;105592;1274;22526;-61
2022/06/15 01:19:04;;;;;;;15.60;1.90;;;;;;;8.87;69.34;100849.58;105691;1274;26539;-61
2022/06/15 01:21:44;;;;;;;8.20;1.50;;;;;;;8.85;69.41;100848.54;105595;1273;22611;-62
2022/06/15 01:24:58;;;;;;;7.10;1.50;;;;;;;8.83;69.46;100848.70;105772;1274;25311;-61
2022/06/15 01:27:56;;;;;;;6.20;1.30;;;;;;;8.78;69.65;100844.89;105613;1274;22534;-61
2022/06/15 01:30:38;;;;;;;8.00;1.40;;;;;;;8.73;69.63;100837.59;105514;1274;24616;-61
2022/06/15 01:33:18;;;;;;;6.30;1.30;;;;;;;8.70;69.78;100835.38;105609;1274;22569;-60
2022/06/15 01:35:58;;;;;;;9.70;1.30;;;;;;;8.66;69.89;100834.89;105669;1274;22569;-61
2022/06/15 01:38:38;;;;;;;6.00;1.30;;;;;;;8.63;69.95;100836.62;105896;1272;24064;-61
2022/06/15 01:41:16;;;;;;;6.80;1.80;;;;;;;8.58;70.04;100836.86;105843;1272;25248;-62
2022/06/15 01:43:51;;;;;;;8.90;1.50;;;;;;;8.54;70.22;100837.47;105616;1274;22582;-60
2022/06/15 01:46:24;;;;;;;7.30;1.40;;;;;;;8.49;70.21;100833.04;105584;1274;22560;-61
2022/06/15 01:48:58;;;;;;;7.70;1.50;;;;;;;8.45;70.34;100835.80;105677;1274;25267;-60
2022/06/15 01:51:34;;;;;;;10.40;2.30;;;;;;;8.42;70.36;100835.20;105702;1274;22554;-60
2022/06/15 01:54:09;;;;;;;6.90;1.20;;;;;;;8.38;70.53;100833.49;105702;1274;24272;-61
2022/06/15 01:56:45;;;;;;;8.90;1.40;;;;;;;8.36;70.64;100836.68;105701;1274;24379;-60
2022/06/15 01:59:21;;;;;;;5.80;0.90;;;;;;;8.31;70.70;100837.33;105708;1274;25379;-61
2022/06/15 02:02:02;;;;;;;4.90;0.80;;;;;;;8.27;70.67;100836.74;105666;1274;24518;-61
2022/06/15 02:04:35;;;;;;;;;;;;;;;8.23;70.69;100837.57;105623;1274;24387;-60
2022/06/15 02:07:21;;;;;;;6.00;0.90;;;;;;;8.18;70.67;100836.23;105570;1274;22544;-59
2022/06/15 02:09:59;;;;;;;8.10;1.20;;;;;;;8.14;70.71;100836.60;105553;1274;26509;-61
2022/06/15 02:12:37;;;;;;;4.20;1.00;;;;;;;8.11;70.85;100838.70;105716;1274;22555;-60
2022/06/15 02:15:13;;;;;;;7.60;1.30;;;;;;;8.08;70.89;100841.23;105577;1274;25369;-60
2022/06/15 02:17:48;;;;;;;8.10;1.20;;;;;;;8.09;71.10;100843.92;105875;1274;22651;-60
2022/06/15 02:20:24;;;;;;;7.30;1.40;;;;;;;8.10;71.20;100843.41;105708;1274;24272;-59
2022/06/15 02:22:59;;;;;;;6.70;1.20;;;;;;;8.11;71.61;100842.09;105679;1274;24226;-60
2022/06/15 02:25:36;;;;;;;7.00;1.40;;;;;;;8.09;71.44;100842.33;105623;1274;22554;-61
2022/06/15 02:28:08;;;;;;;7.20;1.30;;;;;;;8.07;71.57;100841.98;105761;1274;22571;-60
2022/06/15 02:30:42;;;;;;;8.90;1.50;;;;;;;8.04;71.69;100839.95;105748;1275;25663;-60
2022/06/15 02:33:24;;;;;;;8.70;1.50;;;;;;;8.03;71.81;100835.92;105723;1274;22553;-60
2022/06/15 02:35:57;;;;;;;7.50;1.50;;;;;;;8.00;71.84;100832.77;105826;1274;22541;-60
2022/06/15 02:38:31;;;;;;;3.40;1.10;;;;;;;7.98;71.82;100832.36;105858;1274;25335;-61
2022/06/15 02:41:02;;;;;;;6.00;1.40;;;;;;;7.96;71.93;100832.11;105650;1274;25707;-61
2022/06/15 02:43:36;;;;;;;5.80;1.40;;;;;;;7.94;72.03;100836.23;105577;1274;22529;-60
2022/06/15 02:46:10;;;;;;;10.00;1.60;;;;;;;7.94;72.04;100841.00;105669;1274;24307;-60
2022/06/15 02:48:42;;;;;;;7.10;1.40;;;;;;;7.93;72.10;100840.08;105579;1274;22608;-60
2022/06/15 02:51:18;;;;;;;6.70;1.50;;;;;;;7.92;72.25;100838.21;105620;1274;22570;-60
2022/06/15 02:53:53;;;;;;;10.70;1.80;;;;;;;7.93;72.34;100839.61;105634;1274;22556;-60
2022/06/15 02:56:26;;;;;;;9.80;1.80;;;;;;;7.91;72.49;100845.93;105703;1273;22987;-60
2022/06/15 02:59:00;;;;;;;12.20;1.60;;;;;;;7.91;72.60;100846.98;105704;1274;22560;-63
2022/06/15 03:01:31;;;;;;;9.40;2.00;;;;;;;7.90;72.73;100847.33;105652;1274;25250;-62
2022/06/15 03:04:02;;;;;;;7.70;1.70;;;;;;;7.88;72.65;100853.17;105627;1274;25353;-59
2022/06/15 03:06:34;;;;;;;6.80;1.30;;;;;;;7.86;72.63;100854.70;105618;1273;25362;-60
2022/06/15 03:09:06;;;;;;;8.30;1.50;;;;;;;7.84;72.62;100855.08;105662;1273;23012;-60
2022/06/15 03:11:39;;;;;;;7.60;1.50;;;;;;;7.82;72.72;100850.75;105724;1274;22577;-61
2022/06/15 03:14:10;;;;;;;5.10;1.50;;;;;;;7.80;72.84;100851.54;105769;1273;22557;-60
2022/06/15 03:16:43;;;;;;;7.20;1.70;;;;;;;7.78;72.88;100856.98;105632;1274;22585;-60
2022/06/15 03:19:16;;;;;;;7.40;1.80;;;;;;;7.77;72.99;100853.61;105697;1273;24340;-59
2022/06/15 03:21:47;;;;;;;10.80;1.70;;;;;;;7.76;73.14;100855.14;105630;1273;22672;-60
2022/06/15 03:24:18;;;;;;;8.30;1.20;;;;;;;7.75;73.20;100856.06;105595;1273;22581;-59
2022/06/15 03:26:51;;;;;;;10.40;1.50;;;;;;;7.75;73.36;100856.55;105637;1273;26025;-59
2022/06/15 03:29:24;;;;;;;11.10;2.00;;;;;;;7.77;73.63;100854.16;105614;1273;25385;-64
2022/06/15 03:31:55;;;;;;;11.00;1.90;;;;;;;7.80;73.81;100856.69;105618;1273;22553;-59
2022/06/15 03:34:27;;;;;;;11.90;1.90;;;;;;;7.81;73.90;100860.02;105648;1273;24232;-61
2022/06/15 03:37:00;;;;;;;10.70;2.20;;;;;;;7.82;74.04;100852.09;105627;1274;24294;-59
2022/06/15 03:39:32;;;;;;;12.40;2.10;;;;;;;7.85;74.28;100853.67;105621;1273;25670;-60
2022/06/15 03:42:14;;;;;;;9.00;2.20;;;;;;;7.90;74.41;100854.15;105659;1274;22565;-60
2022/06/15 03:44:46;;;;;;;10.00;2.20;;;;;;;7.93;74.58;100855.27;105706;1274;22580;-60
2022/06/15 03:47:18;;;;;;;11.30;2.30;;;;;;;7.96;74.81;100856.52;105658;1273;22623;-61
2022/06/15 03:49:51;;;;;;;8.00;2.20;;;;;;;7.99;74.86;100856.64;105599;1273;22557;-61
2022/06/15 03:52:25;;;;;;;13.60;2.90;;;;;;;8.03;74.95;100855.54;105627;1273;22651;-60
2022/06/15 03:54:56;;;;;;;10.80;3.00;;;;;;;8.09;74.94;100856.00;105559;1274;22612;-60
2022/06/15 03:57:27;;;;;;;13.10;2.60;;;;;;;8.16;75.03;100857.59;105667;1273;24256;-60
2022/06/15 03:59:59;;;;;;;13.10;2.70;;;;;;;8.23;75.33;100860.23;105755;1273;22551;-61
2022/06/15 04:02:31;;;;;;;14.00;2.90;;;;;;;8.29;75.45;100859.48;106026;1273;22634;-62
2022/06/15 04:05:02;;;;;;;12.80;2.90;;;;;;;8.36;75.48;100857.73;105717;1274;22571;-60
2022/06/15 04:10:23;;;;;;;11.30;3.00;;;;;;;8.52;75.52;100857.33;105681;1273;24385;-61
2022/06/15 04:12:54;;;;;;;9.90;2.70;;;;;;;8.61;75.69;100860.84;105511;1273;22546;-62
2022/06/15 04:15:26;;;;;;;13.50;3.30;;;;;;;8.69;75.78;100861.52;104976;1274;24647;-60
2022/06/15 04:17:57;;;;;;;12.50;2.60;;;;;;;8.77;75.95;100863.23;105505;1274;22622;-60
2022/06/15 04:20:36;;;;;;;14.50;3.30;;;;;;;8.86;76.07;100863.08;105794;1274;22556;-60
2022/06/15 04:23:13;;;;;;;10.20;2.30;;;;;;;8.96;75.98;100866.20;105484;1273;22534;-61
2022/06/15 04:25:51;;;;;;;12.50;3.30;;;;;;;9.07;76.07;100865.40;105520;1274;22553;-60
2022/06/15 04:28:25;;;;;;;13.30;3.40;;;;;;;9.17;76.31;100862.78;105472;1274;22532;-60
2022/06/15 04:30:56;;;;;;;12.40;3.60;;;;;;;9.28;76.22;100861.75;105649;1274;22772;-61
2022/06/15 04:33:28;;;;;;;13.00;3.40;;;;;;;9.39;76.38;100865.07;105376;1273;25920;-61
2022/06/15 04:36:01;;;;;;;15.70;3.70;;;;;;;9.50;76.36;100865.20;105676;1274;23016;-60
2022/06/15 04:38:33;;;;;;;12.30;3.60;;;;;;;9.61;76.49;100867.81;105833;1273;22589;-61
2022/06/15 04:41:05;;;;;;;18.60;3.20;;;;;;;9.69;76.46;100865.59;105624;1274;22554;-60
2022/06/15 04:43:37;;;;;;;12.20;3.00;;;;;;;9.78;76.36;100863.48;107336;1274;25346;-61
2022/06/15 04:46:08;;;;;;;15.30;3.70;;;;;;;9.89;76.23;100870.29;105537;1274;24810;-61
2022/06/15 04:48:41;;;;;;;13.80;3.00;;;;;;;9.99;76.19;100868.59;105410;1276;22556;-63
2022/06/15 04:51:18;;;;;;;13.80;3.20;;;;;;;10.11;76.11;100869.88;105759;1276;24237;-61
2022/06/15 04:53:51;;;;;;;16.90;3.60;;;;;;;10.22;75.89;100867.63;109025;1274;22574;-61
2022/06/15 04:56:25;;;;;;;11.60;2.50;;;;;;;10.34;75.89;100868.30;105511;1274;24148;-62
2022/06/15 04:58:56;;;;;;;18.80;3.30;;;;;;;10.48;76.06;100867.86;105617;1274;22576;-62
2022/06/15 05:01:27;;;;;;;14.20;3.10;;;;;;;10.61;76.09;100864.21;105575;1274;22651;-61
2022/06/15 05:03:59;;;;;;;12.80;3.40;;;;;;;10.75;76.13;100861.52;105643;1273;22537;-63
2022/06/15 05:06:37;;;;;;;17.00;3.20;;;;;;;10.91;75.81;100863.91;105624;1274;22741;-62
2022/06/15 05:09:12;;;;;;;17.50;4.30;;;;;;;11.11;75.59;100871.39;105631;1273;22617;-62
2022/06/15 05:11:44;;;;;;;14.00;3.40;;;;;;;11.28;75.57;100866.84;105833;1273;25654;-61
2022/06/15 05:14:16;;;;;;;10.70;3.10;;;;;;;11.47;75.43;100867.83;105724;1273;23044;-62
2022/06/15 05:16:49;;;;;;;12.20;3.20;;;;;;;11.61;75.01;100863.55;105816;1273;24238;-61
2022/06/15 05:19:20;;;;;;;14.20;2.50;;;;;;;11.75;75.02;100865.61;107015;1273;22556;-62
2022/06/15 05:21:52;;;;;;;11.90;2.40;;;;;;;11.94;74.61;100867.89;105540;1274;22541;-61
2022/06/15 05:24:24;;;;;;;13.20;2.70;;;;;;;12.13;74.57;100864.35;105695;1273;22560;-62
2022/06/15 05:26:56;;;;;;;11.70;3.20;;;;;;;12.32;74.23;100862.94;105803;1273;22544;-63
2022/06/15 05:29:31;;;;;;;12.60;2.40;;;;;;;12.50;73.94;100864.95;105894;1273;24267;-62
2022/06/15 05:32:03;;;;;;;14.00;2.90;;;;;;;12.66;73.65;100866.72;105545;1275;22535;-62
2022/06/15 05:34:36;;;;;;;12.50;2.70;;;;;;;12.80;73.75;100869.75;105786;1273;24409;-62
2022/06/15 05:37:08;;;;;;;11.40;2.00;;;;;;;12.94;73.26;100868.75;105689;1273;25359;-62
2022/06/15 05:39:40;;;;;;;12.30;2.60;;;;;;;13.08;73.17;100867.38;105714;1273;25595;-62
2022/06/15 05:42:12;;;;;;;14.60;2.20;;;;;;;13.29;72.97;100867.65;105691;1274;22531;-62
2022/06/15 05:44:49;;;;;;;8.30;1.90;;;;;;;13.46;72.70;100864.07;105626;1273;24367;-61
2022/06/15 05:47:23;;;;;;;11.20;2.10;;;;;;;13.62;72.54;100864.10;105828;1273;25200;-63
2022/06/15 05:49:54;;;;;;;15.70;2.50;;;;;;;13.81;72.50;100865.48;105760;1273;22896;-62
2022/06/15 05:52:26;;;;;;;12.80;2.70;;;;;;;13.93;71.95;100862.55;105655;1273;22703;-61
2022/06/15 05:55:00;;;;;;;12.70;2.00;;;;;;;14.07;71.33;100863.42;105916;1273;22622;-64
2022/06/15 05:57:32;;;;;;;6.20;1.30;;;;;;;14.22;71.18;100863.91;105766;1273;22708;-63
2022/06/15 06:00:05;;;;;;;11.00;1.60;;;;;;;14.42;70.50;100859.65;105788;1273;26534;-63
2022/06/15 06:02:38;;;;;;;10.80;1.80;;;;;;;14.57;70.40;100859.54;106141;1273;26534;-63
2022/06/15 06:05:10;;;;;;;10.70;1.50;;;;;;;14.70;70.04;100862.46;105948;1273;22727;-62
2022/06/15 06:07:42;;;;;;;8.70;1.50;;;;;;;14.82;69.15;100861.52;105980;1273;26360;-61
2022/06/15 06:10:14;;;;;;;9.20;1.30;;;;;;;14.96;68.92;100866.39;106256;1264;25478;-53
2022/06/15 06:12:46;;;;;;;7.90;1.40;;;;;;;15.11;68.39;100865.42;108257;1270;25359;-51
2022/06/15 06:15:18;;;;;;;7.20;0.80;;;;;;;15.15;67.14;100865.32;105949;1268;22561;-53
2022/06/15 06:17:50;;;;;;;9.50;1.30;;;;;;;15.24;67.21;100865.10;106563;1271;22576;-51
2022/06/15 06:20:22;;;;;;;11.10;1.40;;;;;;;15.31;66.00;100865.52;107139;1271;22619;-52
2022/06/15 06:22:53;;;;;;;7.50;1.20;;;;;;;15.35;65.83;100860.66;106208;1271;24290;-52
2022/06/15 06:25:25;;;;;;;9.50;1.10;;;;;;;15.41;65.76;100857.09;106047;1271;22542;-53
2022/06/15 06:27:56;;;;;;;7.00;0.90;;;;;;;15.49;65.92;100858.06;106177;1271;23072;-52
2022/06/15 06:30:28;;;;;;;5.70;1.10;;;;;;;15.66;65.32;100857.48;106004;1271;22543;-50
2022/06/15 06:32:59;;;;;;;7.10;1.00;;;;;;;15.73;63.93;100859.59;106146;1271;23193;-52
2022/06/15 06:35:31;;;;;;;10.10;1.30;;;;;;;15.74;64.15;100857.19;105962;1271;22570;-52
2022/06/15 06:38:03;;;;;;;7.40;1.00;;;;;;;15.82;64.49;100862.42;105946;1270;22560;-54
2022/06/15 06:40:35;;;;;;;9.50;1.00;;;;;;;15.97;63.96;100861.41;106088;1271;25399;-53
2022/06/15 06:43:07;;;;;;;5.80;1.60;;;;;;;16.09;63.70;100861.48;106061;1271;25541;-52
2022/06/15 06:45:38;;;;;;;6.60;1.00;;;;;;;16.14;63.07;100862.04;106096;1271;24258;-50
2022/06/15 06:48:10;;;;;;;9.80;1.10;;;;;;;16.23;62.82;100862.29;106302;1271;22729;-53
2022/06/15 06:50:43;;;;;;;7.50;0.90;;;;;;;16.33;62.90;100861.27;106037;1271;25261;-52
2022/06/15 06:53:16;;;;;;;6.80;0.70;;;;;;;16.48;61.72;100853.07;105937;1271;25380;-51
2022/06/15 06:55:47;;;;;;;7.10;0.70;;;;;;;16.53;60.25;100858.33;106014;1271;26436;-54
2022/06/15 06:58:19;;;;;;;7.60;0.90;;;;;;;16.55;60.42;100858.29;106068;1271;22666;-55
2022/06/15 07:00:51;;;;;;;7.90;0.70;;;;;;;16.64;60.16;100862.13;105968;1271;22524;-53
2022/06/15 07:03:22;;;;;;;6.30;1.00;;;;;;;16.68;59.51;100863.57;106083;1271;25413;-53
2022/06/15 07:05:59;;;;;;;10.30;1.10;;;;;;;16.70;59.47;100859.95;106038;1271;25236;-53
2022/06/15 07:08:31;;;;;;;7.40;0.80;;;;;;;16.73;59.16;100859.19;106191;1271;24994;-54
2022/06/15 07:11:08;;;;;;;7.80;0.80;;;;;;;16.86;59.57;100854.61;106018;1270;22525;-52
2022/06/15 07:13:42;;;;;;;5.60;0.80;;;;;;;17.02;59.38;100857.54;106002;1271;22544;-54
2022/06/15 07:16:16;;;;;;;3.80;0.80;;;;;;;17.14;59.14;100857.86;106132;1271;25228;-51
2022/06/15 07:18:48;;;;;;;8.90;0.70;;;;;;;17.29;58.30;100853.34;105928;1271;25567;-51
2022/06/15 07:21:23;;;;;;;3.70;0.50;;;;;;;17.42;57.62;100854.48;106141;1271;22580;-53
2022/06/15 07:23:58;;;;;;;7.30;0.70;;;;;;;17.54;57.18;100850.00;106081;1271;25605;-52
2022/06/15 07:26:32;;;;;;;3.40;0.40;;;;;;;17.69;56.73;100853.81;106146;1271;24401;-52
2022/06/15 07:29:04;;;;;;;4.40;0.70;;;;;;;17.77;55.83;100855.27;105729;1271;538597;-54
2022/06/15 07:31:39;;;;;;;6.20;0.60;;;;;;;17.86;55.32;100855.89;106002;1271;22563;-52
2022/06/15 07:34:11;;;;;;;2.60;0.50;;;;;;;17.89;55.09;100852.55;106028;1271;25346;-54
2022/06/15 07:36:46;;;;;;;8.70;0.60;;;;;;;17.96;54.38;100849.87;106005;1271;24209;-51
2022/06/15 07:39:19;;;;;;;7.50;0.60;;;;;;;17.99;54.18;100848.73;106034;1271;22559;-51
2022/06/15 07:41:52;;;;;;;3.80;0.70;;;;;;;18.06;54.08;100852.68;105856;1270;25362;-52
2022/06/15 07:44:25;;;;;;;6.40;0.60;;;;;;;18.10;52.85;100847.02;106108;1271;22526;-52
2022/06/15 07:49:58;;;;;;;3.80;0.60;;;;;;;18.08;52.18;100839.58;106007;1271;25363;-52
2022/06/15 07:52:33;;;;;;;8.30;0.60;;;;;;;18.09;52.45;100844.00;106105;1271;24440;-51
2022/06/15 07:55:09;;;;;;;5.00;0.60;;;;;;;18.15;51.90;100840.90;106223;1271;22742;-50
2022/06/15 07:57:42;;;;;;;4.50;0.60;;;;;;;18.23;52.15;100848.17;106292;1271;24122;-51
2022/06/15 08:00:16;;;;;;;4.00;0.60;;;;;;;18.36;52.19;100850.91;106271;1271;27641;-54
2022/06/15 08:02:49;;;;;;;3.40;0.50;;;;;;;18.45;51.41;100851.02;106220;1271;22553;-52
2022/06/15 08:05:21;;;;;;;7.80;0.70;;;;;;;18.48;51.23;100849.27;106183;1271;22640;-51
2022/06/15 08:07:53;;;;;;;3.30;0.50;;;;;;;18.56;51.32;100844.56;106251;1270;22727;-53
2022/06/15 08:10:27;;;;;;;7.40;0.70;;;;;;;18.65;51.31;100846.92;106196;1270;25307;-53
2022/06/15 08:12:59;;;;;;;6.50;0.70;;;;;;;18.73;50.44;100842.98;106114;1270;22532;-51
2022/06/15 08:15:31;;;;;;;7.20;0.70;;;;;;;18.78;50.26;100846.98;106085;1271;24424;-51
2022/06/15 08:18:11;;;;;;;6.30;0.60;;;;;;;18.89;50.30;100843.89;106143;1271;23225;-55
2022/06/15 08:20:47;;;;;;;4.40;0.50;;;;;;;18.97;49.65;100848.27;106072;1271;22557;-53
2022/06/15 08:23:23;;;;;;;4.20;0.40;;;;;;;19.04;49.92;100842.40;106122;1271;22538;-52
2022/06/15 08:25:57;;;;;;;6.30;0.70;;;;;;;19.13;49.53;100838.70;106038;1271;25222;-54
2022/06/15 08:28:38;;;;;;;3.80;0.40;;;;;;;19.21;49.24;100833.70;106314;1271;23773;-53
2022/06/15 08:31:09;;;;;;;5.90;0.60;;;;;;;19.24;48.48;100831.42;106019;1271;22525;-54
2022/06/15 08:33:41;;;;;;;5.20;0.50;;;;;;;19.24;48.23;100827.31;106131;1271;25394;-53
2022/06/15 08:36:13;;;;;;;7.70;0.80;;;;;;;19.26;48.31;100824.52;106146;1271;25225;-54
2022/06/15 08:38:45;;;;;;;5.00;0.50;;;;;;;19.31;48.44;100824.64;106136;1270;25360;-52
2022/06/15 08:41:38;;;;;;;5.50;0.60;;;;;;;19.42;48.47;100822.52;106134;1271;24435;-54
2022/06/15 08:44:21;;;;;;;5.90;0.60;;;;;;;19.57;48.29;100817.87;106064;1271;22541;-54
2022/06/15 08:47:03;;;;;;;6.90;0.70;;;;;;;19.72;47.91;100817.23;106028;1270;24522;-54
2022/06/15 08:49:43;;;;;;;6.70;0.80;;;;;;;19.78;47.54;100810.98;106007;1270;25307;-54
2022/06/15 08:52:18;;;;;;;3.00;0.50;;;;;;;19.88;47.55;100808.11;106061;1271;22703;-52
2022/06/15 08:54:59;;;;;;;5.90;0.70;;;;;;;19.98;47.33;100809.96;106018;1271;23578;-52
2022/06/15 08:57:40;;;;;;;7.70;0.50;;;;;;;20.07;46.86;100810.32;106209;1271;22528;-55
2022/06/15 09:00:19;;;;;;;4.20;0.50;;;;;;;20.18;46.57;100806.66;106071;1271;22548;-55
2022/06/15 09:03:05;;;;;;;4.40;0.60;;;;;;;20.29;46.52;100810.47;106093;1271;25297;-51
2022/06/15 09:05:48;;;;;;;6.00;0.90;;;;;;;20.41;46.46;100812.55;106227;1271;25572;-54
2022/06/15 09:08:36;;;;;;;4.40;0.50;;;;;;;20.51;45.69;100813.55;106146;1271;25391;-53
2022/06/15 09:11:15;;;;;;;4.20;0.50;;;;;;;20.60;45.70;100817.31;106070;1271;22533;-51
2022/06/15 09:14:05;;;;;;;5.60;0.50;;;;;;;20.68;45.54;100816.02;106020;1271;25237;-53
2022/06/15 09:16:47;;;;;;;6.60;0.60;;;;;;;20.80;45.27;100815.35;106091;1271;25289;-54
2022/06/15 09:19:24;;;;;;;7.20;0.70;;;;;;;20.85;44.46;100816.11;106054;1271;22526;-53
2022/06/15 09:22:02;;;;;;;4.50;0.70;;;;;;;20.85;44.39;100813.37;106087;1271;26491;-51
2022/06/15 09:24:46;;;;;;;6.60;0.40;;;;;;;20.85;43.24;100811.56;106260;1271;22558;-54
2022/06/15 09:27:23;;;;;;;2.10;0.40;;;;;;;20.82;43.75;100812.38;106009;1271;22750;-52
2022/06/15 09:30:00;;;;;;;5.30;0.60;;;;;;;20.91;44.03;100814.67;106324;1270;22650;-53
2022/06/15 09:32:36;;;;;;;3.40;0.50;;;;;;;21.01;43.65;100815.02;106273;1271;25387;-53
2022/06/15 09:35:13;;;;;;;5.10;1.00;;;;;;;21.11;44.07;100810.29;106081;1271;25387;-53
2022/06/15 09:37:51;;;;;;;4.60;0.60;;;;;;;21.25;43.34;100804.60;106011;1271;23830;-51
2022/06/15 09:40:30;;;;;;;3.40;0.40;;;;;;;21.24;42.71;100803.29;106076;1271;25048;-51
2022/06/15 09:43:08;;;;;;;6.60;0.90;;;;;;;21.27;42.73;100798.84;106139;1271;22528;-54
2022/06/15 09:45:46;;;;;;;4.30;0.50;;;;;;;21.33;42.37;100786.66;106312;1271;22524;-54
2022/06/15 09:48:27;;;;;;;4.50;0.40;;;;;;;21.31;42.28;100783.80;106040;1271;25348;-53
2022/06/15 09:51:08;;;;;;;4.60;0.60;;;;;;;21.39;42.38;100779.90;105967;1271;22561;-53
2022/06/15 09:53:43;;;;;;;;;;;;;;;21.51;42.11;100777.73;106181;1270;22508;-54
2022/06/15 09:56:18;;;;;;;5.80;0.60;;;;;;;21.63;42.15;100778.00;106082;1271;26669;-54
2022/06/15 09:58:55;;;;;;;7.00;0.90;;;;;;;21.72;41.82;100777.01;106144;1270;26751;-52
2022/06/15 10:01:30;;;;;;;5.30;0.40;;;;;;;21.74;41.34;100782.23;106223;1270;22531;-51
2022/06/15 10:04:04;;;;;;;3.50;0.50;;;;;;;21.70;41.21;100783.08;106204;1271;22604;-51
2022/06/15 10:06:47;;;;;;;4.80;0.60;;;;;;;21.73;41.56;100779.45;106287;1271;24501;-53
2022/06/15 10:09:23;;;;;;;5.20;0.50;;;;;;;21.80;41.09;100780.98;106206;1271;24252;-51
2022/06/15 10:12:55;;;;;;;3.80;0.40;;;;;;;21.77;40.83;100778.52;106066;1270;22548;-52
2022/06/15 10:14:51;;;;;;;7.70;0.80;;;;;;;21.69;40.57;100773.73;106079;1271;22620;-53
2022/06/15 10:17:29;;;;;;;3.90;0.50;;;;;;;21.66;40.82;100770.39;106069;1271;23110;-54
2022/06/15 10:20:02;;;;;;;6.30;0.60;;;;;;;21.71;40.88;100767.76;106087;1271;22726;-54
2022/06/15 10:22:42;;;;;;;2.70;0.70;;;;;;;21.80;40.67;100767.21;106163;1271;24129;-53
2022/06/15 10:25:19;;;;;;;5.40;0.40;;;;;;;21.81;40.52;100769.66;106136;1271;23929;-53
2022/06/15 10:27:52;;;;;;;6.60;0.50;;;;;;;21.84;40.35;100768.23;106346;1271;24320;-54
2022/06/15 10:30:25;;;;;;;7.00;0.80;;;;;;;21.87;40.59;100771.70;106068;1271;22577;-54
2022/06/15 10:33:17;;;;;;;2.70;0.50;;;;;;;21.88;40.11;100769.59;106425;1271;22540;-51
2022/06/15 10:35:55;;;;;;;4.00;0.70;;;;;;;21.87;40.56;100768.02;106238;1271;22544;-54
2022/06/15 10:38:28;;;;;;;5.20;0.50;;;;;;;21.98;40.25;100765.95;106216;1270;27486;-53
2022/06/15 10:41:45;;;;;;;2.50;0.40;;;;;;;22.00;39.85;100762.92;106117;1271;26148;-54
2022/06/15 10:43:54;;;;;;;3.70;0.50;;;;;;;21.89;39.69;100764.30;105884;1271;24365;-52
2022/06/15 10:46:26;;;;;;;6.70;0.60;;;;;;;21.88;39.76;100756.93;106079;1270;23013;-53
2022/06/15 10:48:58;;;;;;;3.20;0.50;;;;;;;21.91;39.55;100757.92;106046;1270;25346;-51
2022/06/15 10:51:37;;;;;;;4.20;0.40;;;;;;;21.88;39.15;100758.08;106028;1271;23476;-51
2022/06/15 10:54:29;;;;;;;4.50;0.50;;;;;;;21.88;39.92;100753.67;106125;1271;25315;-53
2022/06/15 11:03:23;;;;;;;4.30;0.50;;;;;;;22.35;39.85;100744.52;105974;1271;22528;-52
2022/06/15 11:05:59;;;;;;;6.00;0.50;;;;;;;22.40;39.85;100742.54;105982;1270;25363;-53
2022/06/15 11:08:34;;;;;;;6.80;0.50;;;;;;;22.48;39.74;100740.21;106038;1270;25537;-52
2022/06/15 11:11:18;;;;;;;4.80;0.40;;;;;;;22.49;39.11;100741.98;106354;1271;24192;-51
2022/06/15 11:13:58;;;;;;;3.80;0.40;;;;;;;22.46;39.08;100735.02;106052;1271;22547;-54
2022/06/15 11:19:25;;;;;;;3.90;0.40;;;;;;;22.47;38.94;100732.20;106043;1271;24303;-51
2022/06/15 11:22:02;;;;;;;3.60;0.40;;;;;;;22.51;38.64;100730.46;106142;1270;24201;-51
2022/06/15 11:24:40;;;;;;;4.70;0.40;;;;;;;22.51;38.37;100731.08;106155;1271;22531;-55
2022/06/15 11:27:18;;;;;;;6.60;0.50;;;;;;;22.51;38.42;100729.48;106100;1271;22752;-53
2022/06/15 11:29:54;;;;;;;3.80;0.40;;;;;;;22.53;38.31;100730.41;105993;1270;25346;-51
2022/06/15 11:32:46;;;;;;;2.40;0.40;;;;;;;22.57;38.00;100728.78;106080;1271;25399;-52
2022/06/15 11:35:31;;;;;;;3.70;0.30;;;;;;;22.54;38.26;100727.07;105984;1271;22525;-53
2022/06/15 11:38:14;;;;;;;4.40;0.50;;;;;;;22.62;38.32;100726.06;106039;1270;24255;-52
2022/06/15 11:40:51;;;;;;;2.60;0.30;;;;;;;22.64;37.94;100722.55;106040;1271;22649;-54
2022/06/15 11:43:26;;;;;;;4.20;0.50;;;;;;;22.69;38.47;100723.67;106001;1271;25371;-54
2022/06/15 11:46:18;;;;;;;6.60;0.50;;;;;;;22.77;38.19;100724.25;106073;1271;25509;-54
2022/06/15 11:49:06;;;;;;;2.50;0.40;;;;;;;22.80;38.19;100723.91;105811;1271;22628;-54
2022/06/15 11:51:51;;;;;;;3.50;0.50;;;;;;;22.76;37.91;100722.52;106116;1271;22573;-51
2022/06/15 11:54:42;;;;;;;4.40;0.50;;;;;;;22.73;38.15;100724.75;106289;1271;24371;-53
2022/06/15 11:57:30;;;;;;;3.80;0.50;;;;;;;22.79;37.52;100726.02;106043;1271;22632;-53
2022/06/15 12:00:12;;;;;;;2.10;0.40;;;;;;;22.74;37.46;100717.66;106128;1271;22975;-55
2022/06/15 12:03:09;;;;;;;5.90;0.60;;;;;;;22.75;37.72;100717.18;106021;1270;24335;-55
2022/06/15 12:05:46;;;;;;;6.50;0.80;;;;;;;22.77;37.40;100717.23;106189;1270;22645;-55
2022/06/15 12:08:33;;;;;;;4.40;0.40;;;;;;;22.73;36.90;100714.80;106113;1271;23684;-53
2022/06/15 12:14:09;;;;;;;3.70;0.40;;;;;;;22.73;37.06;100709.60;105795;1273;22543;-65
2022/06/15 12:16:47;;;;;;;4.90;0.40;;;;;;;22.73;37.22;100711.47;105794;1273;22557;-65